Time;durP1;ratioP1;P1;durP2;ratioP2;P2;SDS_P1;SDS_P2;PMS_P1;PMS_P2;Temp;Humidity;BMP_temperature;BMP_pressure;BME280_temperature;BME280_humidity;BME280_pressure;Samples;Min_cycle;Max_cycle;Signal;HPM_P1;HPM_P2
2022/08/12 00:43:25;;;;;;;3.53;3.33;;;23.80;49.10;;;;;;5071628;28;20461;-70
2022/08/12 00:48:36;;;;;;;3.33;3.13;;;23.80;49.10;;;;;;5087889;28;20464;-70
2022/08/12 00:51:03;;;;;;;4.30;3.90;;;23.80;49.00;;;;;;5068910;28;20545;-70
2022/08/12 00:53:29;;;;;;;3.87;3.57;;;23.70;49.00;;;;;;5063430;28;20457;-70
2022/08/12 00:55:59;;;;;;;4.20;3.80;;;23.70;49.10;;;;;;5067980;28;20449;-70
2022/08/12 00:58:28;;;;;;;4.27;3.90;;;23.70;49.20;;;;;;5072600;28;20229;-70
2022/08/12 01:01:06;;;;;;;5.00;3.47;;;23.60;49.40;;;;;;5057234;28;20444;-70
2022/08/12 01:11:50;;;;;;;4.10;3.80;;;23.40;49.40;;;;;;5070918;28;20441;-70
2022/08/12 01:14:19;;;;;;;6.60;4.03;;;23.30;49.40;;;;;;5077801;28;21194;-70
2022/08/12 01:16:47;;;;;;;7.20;4.03;;;23.30;49.50;;;;;;5061262;28;20455;-70
2022/08/12 01:19:13;;;;;;;4.23;3.83;;;23.30;49.40;;;;;;5074474;28;20785;-69
2022/08/12 01:22:10;;;;;;;4.33;3.93;;;23.30;49.40;;;;;;5070075;28;21010;-69
2022/08/12 01:24:48;;;;;;;4.40;3.70;;;23.30;49.40;;;;;;5072054;28;20476;-70
2022/08/12 01:27:16;;;;;;;4.43;4.10;;;23.30;49.40;;;;;;5069030;27;20455;-70
2022/08/12 01:29:43;;;;;;;4.90;4.50;;;23.30;49.40;;;;;;5070995;28;20441;-70
2022/08/12 01:32:14;;;;;;;7.57;3.87;;;23.10;49.50;;;;;;5070834;28;20488;-69
2022/08/12 01:35:00;;;;;;;4.17;3.87;;;23.00;49.80;;;;;;5076543;28;20448;-70
2022/08/12 01:37:29;;;;;;;5.33;3.97;;;23.00;49.80;;;;;;5077204;28;20460;-70
2022/08/12 01:39:57;;;;;;;4.00;3.80;;;23.00;49.80;;;;;;5071210;28;20980;-70
2022/08/12 01:42:25;;;;;;;4.00;3.70;;;23.00;49.70;;;;;;5069317;28;20489;-69
2022/08/12 01:44:53;;;;;;;4.60;4.20;;;23.00;49.60;;;;;;5061815;28;20453;-70
2022/08/12 01:47:39;;;;;;;3.97;3.67;;;23.00;49.60;;;;;;5060618;28;20504;-70
2022/08/12 01:50:35;;;;;;;3.57;3.27;;;22.90;49.60;;;;;;5075659;28;20448;-70
2022/08/12 01:53:14;;;;;;;4.97;3.70;;;23.00;49.60;;;;;;5068936;28;20445;-70
2022/08/12 01:55:46;;;;;;;3.90;3.60;;;22.90;49.70;;;;;;5065500;28;20450;-70
2022/08/12 01:58:24;;;;;;;4.13;3.70;;;22.80;49.80;;;;;;5079022;28;20481;-69
2022/08/12 02:01:02;;;;;;;3.83;3.53;;;22.80;49.80;;;;;;5068956;28;20460;-70
2022/08/12 02:13:09;;;;;;;4.10;3.80;;;22.60;49.90;;;;;;5069652;28;20520;-70
2022/08/12 02:16:28;;;;;;;3.77;3.47;;;22.60;49.90;;;;;;5087357;28;20448;-69
2022/08/12 02:19:13;;;;;;;3.70;3.50;;;22.60;50.10;;;;;;5024912;28;21026;-70
2022/08/12 02:22:16;;;;;;;8.57;3.50;;;22.50;49.90;;;;;;5078177;28;20448;-70
2022/08/12 02:24:44;;;;;;;4.23;3.83;;;22.50;50.10;;;;;;4997342;28;20508;-70
2022/08/12 02:27:12;;;;;;;4.10;3.70;;;22.50;50.00;;;;;;5067151;28;20476;-69
2022/08/12 02:29:39;;;;;;;3.70;3.40;;;22.40;50.00;;;;;;5068711;28;20453;-70
2022/08/12 02:32:06;;;;;;;3.77;3.47;;;22.40;50.20;;;;;;5053822;28;20453;-70
2022/08/12 02:34:33;;;;;;;4.63;4.23;;;22.40;50.20;;;;;;5069753;28;20449;-69
2022/08/12 02:37:00;;;;;;;3.57;3.17;;;22.40;50.10;;;;;;5068785;28;20444;-70
2022/08/12 02:39:28;;;;;;;4.40;4.00;;;22.40;50.00;;;;;;5065235;28;20495;-70
2022/08/12 02:41:59;;;;;;;4.70;4.20;;;22.40;50.00;;;;;;5067507;28;20477;-70
2022/08/12 02:44:29;;;;;;;5.00;3.40;;;22.40;50.10;;;;;;5061527;28;20469;-70
2022/08/12 02:46:59;;;;;;;4.50;3.53;;;22.30;50.20;;;;;;5066925;28;20441;-70
2022/08/12 02:49:33;;;;;;;4.00;3.70;;;22.30;50.20;;;;;;5070911;28;21097;-70
2022/08/12 02:51:59;;;;;;;4.03;3.73;;;22.30;50.10;;;;;;5070571;28;20449;-70
2022/08/12 02:54:26;;;;;;;3.40;3.20;;;22.30;50.10;;;;;;5068032;28;20452;-69
2022/08/12 02:56:53;;;;;;;4.17;3.87;;;22.20;50.10;;;;;;5066560;28;20559;-70
2022/08/12 02:59:23;;;;;;;4.40;4.00;;;22.30;50.10;;;;;;5070273;28;21025;-69
2022/08/12 03:01:54;;;;;;;3.53;3.33;;;22.10;50.30;;;;;;5060448;28;20520;-70
2022/08/12 03:04:29;;;;;;;3.60;3.30;;;22.10;50.20;;;;;;5065475;28;20492;-70
2022/08/12 03:07:19;;;;;;;4.17;3.50;;;22.10;50.30;;;;;;5060503;28;20441;-70
2022/08/12 03:09:50;;;;;;;4.23;3.73;;;22.10;50.30;;;;;;5052069;28;20824;-69
2022/08/12 03:12:17;;;;;;;3.67;3.37;;;22.00;50.30;;;;;;5068095;28;20489;-69
2022/08/12 03:14:43;;;;;;;4.33;4.03;;;22.10;50.30;;;;;;5060790;28;20476;-69
2022/08/12 03:17:28;;;;;;;5.07;3.57;;;22.00;50.80;;;;;;5068754;28;20511;-68
2022/08/12 03:19:55;;;;;;;3.83;3.53;;;22.00;50.30;;;;;;5068031;28;20464;-69
2022/08/12 03:22:22;;;;;;;7.03;3.83;;;22.10;50.40;;;;;;5071038;28;20460;-68
2022/08/12 03:24:49;;;;;;;3.80;3.50;;;22.00;50.30;;;;;;5073312;28;20452;-70
2022/08/12 03:27:16;;;;;;;3.93;3.63;;;22.00;50.40;;;;;;5070959;28;20545;-68
2022/08/12 03:29:48;;;;;;;4.73;4.17;;;22.00;50.60;;;;;;5078921;28;20456;-69
2022/08/12 03:32:14;;;;;;;4.20;3.80;;;21.90;50.70;;;;;;5072358;28;20227;-70
2022/08/12 03:34:41;;;;;;;4.20;3.90;;;21.70;50.70;;;;;;5074266;28;20450;-70
2022/08/12 03:37:09;;;;;;;3.90;3.60;;;21.80;50.80;;;;;;5058351;28;20456;-69
2022/08/12 03:42:16;;;;;;;4.20;3.80;;;21.80;50.60;;;;;;5067902;28;20441;-70
2022/08/12 04:01:51;;;;;;;4.00;3.70;;;21.60;50.80;;;;;;5063682;28;20457;-69
2022/08/12 04:04:17;;;;;;;4.37;3.77;;;21.60;50.80;;;;;;5059769;28;20992;-69
2022/08/12 04:06:44;;;;;;;4.73;4.37;;;21.50;50.90;;;;;;5067430;28;20485;-70
2022/08/12 04:09:11;;;;;;;6.33;4.00;;;21.50;50.80;;;;;;5051064;28;20848;-69
2022/08/12 04:14:26;;;;;;;4.00;3.70;;;21.50;50.80;;;;;;5065648;28;21062;-70
2022/08/12 04:16:52;;;;;;;4.03;3.60;;;21.50;51.00;;;;;;5057527;28;20592;-70
2022/08/12 04:19:20;;;;;;;4.07;3.67;;;21.40;51.00;;;;;;5071079;28;20501;-69
2022/08/12 04:21:47;;;;;;;4.20;3.80;;;21.40;50.90;;;;;;5067493;28;20825;-69
2022/08/12 04:24:13;;;;;;;3.77;3.47;;;21.40;50.90;;;;;;5070553;28;20483;-69
2022/08/12 04:26:39;;;;;;;3.83;3.47;;;21.40;51.00;;;;;;5066666;28;20458;-69
2022/08/12 04:29:06;;;;;;;4.17;3.70;;;21.40;51.00;;;;;;5058451;28;20304;-70
2022/08/12 04:31:41;;;;;;;4.20;3.80;;;21.30;51.20;;;;;;5079965;27;20447;-70
2022/08/12 04:34:10;;;;;;;4.07;3.67;;;21.30;51.00;;;;;;5064156;28;20465;-69
2022/08/12 04:36:38;;;;;;;4.67;3.77;;;21.30;51.00;;;;;;5069716;28;20461;-70
2022/08/12 04:39:06;;;;;;;3.70;3.40;;;21.30;51.00;;;;;;5071114;28;20440;-69
2022/08/12 04:41:33;;;;;;;4.63;4.23;;;21.30;51.00;;;;;;5088376;28;20441;-70
2022/08/12 04:43:59;;;;;;;3.47;3.27;;;21.30;51.00;;;;;;5070656;28;20968;-69
2022/08/12 04:46:25;;;;;;;4.13;3.73;;;21.30;51.10;;;;;;5050927;28;20511;-68
2022/08/12 04:48:52;;;;;;;4.23;3.77;;;21.20;51.10;;;;;;5036539;28;20859;-69
2022/08/12 04:51:20;;;;;;;4.00;3.70;;;21.20;51.10;;;;;;5070656;28;20273;-70
2022/08/12 04:53:47;;;;;;;4.07;3.77;;;21.20;51.40;;;;;;5064254;28;20516;-69
2022/08/12 04:56:13;;;;;;;5.43;4.00;;;21.20;51.30;;;;;;5071353;28;20453;-69
2022/08/12 04:58:39;;;;;;;3.60;3.30;;;21.10;51.60;;;;;;5066758;28;20446;-69
2022/08/12 05:01:06;;;;;;;10.93;3.60;;;21.10;52.00;;;;;;5060117;28;20510;-68
2022/08/12 05:03:34;;;;;;;4.20;3.80;;;21.10;51.80;;;;;;5069143;28;20216;-69
2022/08/12 05:06:00;;;;;;;4.23;3.50;;;21.10;51.90;;;;;;5068058;28;20536;-69
2022/08/12 05:08:27;;;;;;;4.57;4.10;;;21.10;51.70;;;;;;5072586;28;20487;-68
2022/08/12 05:10:53;;;;;;;5.57;3.97;;;21.10;51.70;;;;;;5070806;28;20445;-69
2022/08/12 05:13:22;;;;;;;4.30;3.63;;;21.10;52.10;;;;;;5087374;28;20457;-70
2022/08/12 05:15:48;;;;;;;3.57;3.33;;;21.10;51.90;;;;;;5069581;28;20450;-69
2022/08/12 05:18:14;;;;;;;7.47;3.67;;;21.10;51.60;;;;;;5062123;28;20457;-69
2022/08/12 05:20:43;;;;;;;6.73;3.90;;;21.20;51.70;;;;;;5078985;28;20211;-70
2022/08/12 05:23:15;;;;;;;5.47;3.53;;;21.20;51.70;;;;;;5069464;28;20521;-69
2022/08/12 05:25:44;;;;;;;6.33;3.60;;;21.20;51.90;;;;;;5090097;28;20476;-68
2022/08/12 05:28:12;;;;;;;5.03;3.87;;;21.20;51.90;;;;;;5069683;28;20458;-68
2022/08/12 05:30:38;;;;;;;3.60;3.30;;;21.20;52.00;;;;;;5049645;28;20462;-69
2022/08/12 05:33:05;;;;;;;5.70;3.30;;;21.20;51.90;;;;;;5061844;28;20459;-69
2022/08/12 05:35:35;;;;;;;3.87;3.43;;;21.20;52.00;;;;;;5075265;28;20461;-68
2022/08/12 05:40:47;;;;;;;10.07;4.33;;;21.30;52.10;;;;;;5050570;28;20442;-69
2022/08/12 05:43:13;;;;;;;4.30;3.27;;;21.30;52.20;;;;;;5058127;28;20453;-70
2022/08/12 05:45:39;;;;;;;5.60;3.47;;;21.30;52.10;;;;;;5067602;28;20560;-69
2022/08/12 05:48:05;;;;;;;4.13;3.73;;;21.40;52.30;;;;;;5084171;28;20549;-69
2022/08/12 05:50:31;;;;;;;3.93;3.40;;;21.40;52.30;;;;;;5071268;28;20219;-69
2022/08/12 05:52:57;;;;;;;4.00;3.60;;;21.40;52.40;;;;;;5068170;28;20453;-69
2022/08/12 05:55:23;;;;;;;3.70;3.50;;;21.50;52.40;;;;;;5052762;28;20469;-70
2022/08/12 05:57:54;;;;;;;3.70;3.40;;;21.50;52.30;;;;;;5069732;28;20262;-69
2022/08/12 06:00:24;;;;;;;3.50;3.20;;;21.60;52.60;;;;;;5070315;28;20231;-69
2022/08/12 06:02:59;;;;;;;4.70;3.23;;;21.60;52.30;;;;;;5070671;28;20965;-70
2022/08/12 06:05:34;;;;;;;4.70;3.40;;;21.60;52.40;;;;;;5067408;28;20469;-69
2022/08/12 06:08:07;;;;;;;3.90;3.47;;;21.60;52.60;;;;;;5069834;28;20444;-70
2022/08/12 06:10:34;;;;;;;4.27;3.20;;;21.70;52.50;;;;;;5069967;28;20968;-70
2022/08/12 06:13:01;;;;;;;4.17;3.80;;;21.70;52.50;;;;;;5069732;28;20453;-69
2022/08/12 06:15:27;;;;;;;3.70;3.40;;;21.80;52.40;;;;;;5069915;27;20450;-68
2022/08/12 06:17:54;;;;;;;3.87;3.43;;;21.80;52.50;;;;;;5070168;28;20841;-69
2022/08/12 06:20:20;;;;;;;4.40;3.90;;;21.90;52.50;;;;;;5081797;28;20472;-69
2022/08/12 06:22:46;;;;;;;3.90;3.60;;;21.90;52.50;;;;;;5068591;28;20465;-70
2022/08/12 06:25:17;;;;;;;5.30;3.47;;;21.90;52.40;;;;;;5085897;28;20235;-69
2022/08/12 06:27:47;;;;;;;4.30;3.90;;;22.00;52.60;;;;;;5054922;28;20495;-69
2022/08/12 06:30:15;;;;;;;4.40;4.00;;;22.00;52.80;;;;;;5075572;28;21099;-69
2022/08/12 06:32:43;;;;;;;3.47;3.23;;;22.10;53.00;;;;;;5052918;28;20810;-70
2022/08/12 06:35:10;;;;;;;3.33;3.07;;;22.20;52.90;;;;;;5073993;27;20461;-70
2022/08/12 06:37:47;;;;;;;3.43;2.97;;;22.30;52.80;;;;;;5067389;28;20448;-69
2022/08/12 06:40:14;;;;;;;3.67;3.37;;;22.30;52.80;;;;;;5064989;28;20457;-70
2022/08/12 06:42:46;;;;;;;7.47;3.83;;;22.40;53.00;;;;;;5048904;28;20938;-68
2022/08/12 06:45:13;;;;;;;4.47;3.80;;;22.50;53.00;;;;;;5065316;28;20482;-70
2022/08/12 06:47:39;;;;;;;4.00;3.60;;;22.60;52.90;;;;;;5066758;28;20490;-69
2022/08/12 06:50:05;;;;;;;8.50;3.70;;;22.70;52.90;;;;;;5066155;28;20446;-69
2022/08/12 06:52:31;;;;;;;3.67;3.37;;;22.80;52.90;;;;;;5063679;28;20317;-70
2022/08/12 06:54:58;;;;;;;4.87;2.97;;;22.80;53.20;;;;;;5065605;28;21036;-69
2022/08/12 06:57:26;;;;;;;3.30;3.10;;;22.90;52.80;;;;;;5068432;28;20227;-70
2022/08/12 06:59:52;;;;;;;3.83;3.43;;;23.00;52.60;;;;;;5063540;28;20480;-69
2022/08/12 07:02:21;;;;;;;3.80;3.57;;;23.00;52.60;;;;;;5063319;28;20457;-68
2022/08/12 07:04:47;;;;;;;4.00;3.70;;;23.20;52.70;;;;;;5045866;28;20524;-68
2022/08/12 07:07:13;;;;;;;4.17;3.80;;;23.30;52.80;;;;;;5050452;28;20448;-70
2022/08/12 07:09:41;;;;;;;4.17;3.87;;;23.30;52.60;;;;;;5050264;28;20873;-70
2022/08/12 07:12:15;;;;;;;3.50;3.27;;;23.40;52.60;;;;;;5068119;28;20255;-70
2022/08/12 07:14:41;;;;;;;7.53;3.57;;;23.40;52.60;;;;;;5066023;28;20448;-70
2022/08/12 07:17:07;;;;;;;3.47;3.10;;;23.50;52.50;;;;;;5084415;28;20944;-70
2022/08/12 07:19:33;;;;;;;4.17;3.77;;;23.60;52.50;;;;;;5066684;28;20207;-70
2022/08/12 07:22:05;;;;;;;3.67;3.40;;;23.70;52.50;;;;;;5059247;28;20219;-69
2022/08/12 07:24:31;;;;;;;5.83;3.67;;;23.80;52.40;;;;;;5055511;28;20478;-69
2022/08/12 07:26:57;;;;;;;3.97;2.97;;;23.80;52.30;;;;;;5073931;28;20449;-70
2022/08/12 07:29:24;;;;;;;3.83;3.57;;;23.90;52.30;;;;;;5069077;28;20448;-70
2022/08/12 07:31:51;;;;;;;3.03;2.83;;;24.00;52.20;;;;;;5064137;28;20446;-70
2022/08/12 07:34:17;;;;;;;3.40;3.10;;;24.10;52.20;;;;;;5059947;28;20502;-70
2022/08/12 07:36:44;;;;;;;3.33;3.03;;;24.20;52.10;;;;;;5070012;28;20449;-68
2022/08/12 07:39:12;;;;;;;3.77;3.47;;;24.30;52.00;;;;;;5044092;28;20215;-69
2022/08/12 07:41:38;;;;;;;3.60;3.37;;;24.40;52.10;;;;;;5074445;28;20448;-69
2022/08/12 07:44:06;;;;;;;3.17;2.97;;;24.40;51.90;;;;;;5064890;28;20962;-68
2022/08/12 07:46:38;;;;;;;3.03;2.83;;;24.50;51.90;;;;;;5073579;28;20282;-69
2022/08/12 07:49:14;;;;;;;2.97;2.63;;;24.60;51.80;;;;;;5075494;28;20499;-69
2022/08/12 07:51:41;;;;;;;3.30;3.00;;;24.60;51.60;;;;;;5073114;28;20472;-68
2022/08/12 07:54:08;;;;;;;3.30;3.10;;;24.70;51.70;;;;;;5068182;28;20940;-70
2022/08/12 07:56:38;;;;;;;3.10;2.90;;;24.80;51.70;;;;;;5073550;27;20985;-69
2022/08/12 07:59:07;;;;;;;4.40;2.80;;;25.00;51.70;;;;;;5068873;28;20443;-69
2022/08/12 08:01:33;;;;;;;3.27;2.93;;;25.00;51.50;;;;;;5068155;28;20451;-70
2022/08/12 08:06:44;;;;;;;3.47;3.17;;;25.20;51.40;;;;;;5077116;28;20452;-69
2022/08/12 08:09:13;;;;;;;5.90;3.50;;;25.20;51.30;;;;;;5071932;28;20464;-70
2022/08/12 08:14:28;;;;;;;3.27;3.07;;;25.50;51.40;;;;;;5070192;28;20457;-70
2022/08/12 08:16:56;;;;;;;3.07;2.87;;;25.50;51.20;;;;;;5055023;28;20805;-70
2022/08/12 08:19:22;;;;;;;3.43;3.23;;;25.60;51.10;;;;;;5053874;28;20538;-70
2022/08/12 08:21:53;;;;;;;3.97;3.23;;;25.60;50.90;;;;;;5071573;28;20440;-70
2022/08/12 08:24:24;;;;;;;3.27;3.00;;;25.70;51.00;;;;;;5055241;28;20462;-70
2022/08/12 08:26:52;;;;;;;4.03;3.30;;;25.80;51.00;;;;;;5072359;28;20530;-70
2022/08/12 08:29:20;;;;;;;3.90;3.60;;;26.00;50.90;;;;;;5057789;28;20546;-69
2022/08/12 08:31:52;;;;;;;3.13;2.93;;;26.00;51.00;;;;;;5048047;28;20800;-70
2022/08/12 08:34:18;;;;;;;3.80;3.50;;;26.00;50.80;;;;;;5071407;28;20734;-69
2022/08/12 08:36:44;;;;;;;3.33;3.13;;;26.10;50.70;;;;;;5067824;28;20530;-70
2022/08/12 08:39:15;;;;;;;5.13;3.20;;;26.10;50.50;;;;;;5066675;28;20883;-70
2022/08/12 08:44:26;;;;;;;4.03;3.03;;;26.30;50.60;;;;;;5067702;28;20476;-71
2022/08/12 08:46:54;;;;;;;3.93;3.63;;;26.30;50.40;;;;;;5062557;28;20878;-70
2022/08/12 08:49:21;;;;;;;3.83;3.43;;;26.40;50.40;;;;;;5071640;28;20248;-69
2022/08/12 08:51:48;;;;;;;3.03;2.73;;;26.50;50.40;;;;;;5073909;27;20454;-69
2022/08/12 08:54:15;;;;;;;3.13;2.93;;;26.50;50.20;;;;;;5073031;28;21033;-69
2022/08/12 08:56:42;;;;;;;3.27;3.07;;;26.60;50.10;;;;;;5070277;28;20448;-70
2022/08/12 08:59:10;;;;;;;3.47;3.17;;;26.70;50.10;;;;;;5087319;28;20492;-70
2022/08/12 09:01:36;;;;;;;3.00;2.80;;;26.80;49.90;;;;;;5070339;28;20492;-70
2022/08/12 09:04:02;;;;;;;2.83;2.67;;;26.90;49.70;;;;;;5071189;28;20485;-69
2022/08/12 09:06:28;;;;;;;2.47;2.37;;;27.00;49.70;;;;;;5089127;28;20493;-70
2022/08/12 09:08:53;;;;;;;3.03;2.83;;;27.10;49.50;;;;;;5064782;28;20309;-69
2022/08/12 09:14:06;;;;;;;3.47;2.50;;;27.30;49.10;;;;;;5055543;28;20220;-69
2022/08/12 09:16:39;;;;;;;3.00;2.80;;;27.20;48.80;;;;;;5057368;28;20229;-68
2022/08/12 09:19:12;;;;;;;3.87;2.83;;;27.40;48.80;;;;;;5068711;28;20295;-69
2022/08/12 09:21:38;;;;;;;4.00;3.60;;;27.60;48.80;;;;;;5071217;28;20459;-70
2022/08/12 09:24:06;;;;;;;3.40;3.10;;;27.80;48.60;;;;;;5053941;28;20282;-70
2022/08/12 09:26:33;;;;;;;3.60;3.33;;;27.80;48.90;;;;;;5061420;28;20312;-70
2022/08/12 09:28:59;;;;;;;3.43;2.80;;;27.80;48.30;;;;;;5087591;28;20447;-70
2022/08/12 09:31:25;;;;;;;3.07;2.87;;;27.70;48.10;;;;;;5061106;28;20229;-70
2022/08/12 09:33:50;;;;;;;3.17;2.87;;;27.70;48.00;;;;;;5059430;28;20312;-69
2022/08/12 09:36:17;;;;;;;3.23;3.03;;;27.80;48.00;;;;;;5057144;28;20228;-69
2022/08/12 09:38:43;;;;;;;2.90;2.70;;;27.80;47.80;;;;;;5069579;28;20289;-70
2022/08/12 09:41:10;;;;;;;3.30;2.70;;;27.80;47.60;;;;;;5070375;28;20575;-69
2022/08/12 09:46:19;;;;;;;3.15;2.85;;;28.00;47.20;;;;;;5056894;28;20312;-69
2022/08/12 09:48:45;;;;;;;2.77;2.57;;;28.00;47.30;;;;;;5069472;28;20662;-69
2022/08/12 09:51:12;;;;;;;2.83;2.63;;;27.90;47.40;;;;;;5068576;28;20232;-69
2022/08/12 09:53:39;;;;;;;3.35;3.05;;;28.10;47.60;;;;;;5055087;28;20229;-69
2022/08/12 09:56:06;;;;;;;3.47;3.28;;;28.30;47.20;;;;;;5067806;28;20229;-70
2022/08/12 09:58:33;;;;;;;4.20;2.70;;;28.30;46.60;;;;;;5085099;28;20686;-70
2022/08/12 10:01:01;;;;;;;2.72;2.53;;;28.30;46.50;;;;;;5067094;28;20229;-70
2022/08/12 10:03:35;;;;;;;3.20;2.67;;;28.40;46.50;;;;;;5068614;28;20260;-69
2022/08/12 10:06:05;;;;;;;2.72;2.53;;;28.40;46.60;;;;;;5051798;28;20238;-70
2022/08/12 10:08:33;;;;;;;2.47;2.28;;;28.60;46.30;;;;;;5069908;28;20703;-70
2022/08/12 10:13:47;;;;;;;2.47;2.28;;;28.80;46.20;;;;;;5062914;28;20260;-71
2022/08/12 10:16:21;;;;;;;3.17;2.90;;;28.60;45.90;;;;;;5049786;28;20229;-69
2022/08/12 10:19:01;;;;;;;3.88;3.50;;;28.50;46.00;;;;;;5069914;28;20222;-70
2022/08/12 10:21:35;;;;;;;3.25;2.70;;;28.80;45.90;;;;;;5069656;28;20242;-70
2022/08/12 10:24:14;;;;;;;3.10;2.90;;;29.00;45.90;;;;;;5065377;28;20769;-70
2022/08/12 10:29:45;;;;;;;2.72;2.53;;;29.00;45.90;;;;;;5055511;28;20588;-71
2022/08/12 10:32:14;;;;;;;2.95;2.50;;;29.10;45.90;;;;;;5068563;28;20230;-70
2022/08/12 10:34:40;;;;;;;2.95;2.75;;;29.20;45.90;;;;;;5064176;28;20234;-69
2022/08/12 10:37:06;;;;;;;3.35;3.05;;;29.20;45.60;;;;;;5064519;28;20223;-69
2022/08/12 10:39:36;;;;;;;3.15;2.60;;;29.40;45.80;;;;;;5058768;28;20228;-69
2022/08/12 10:44:59;;;;;;;2.78;2.58;;;29.70;45.50;;;;;;5067204;28;20748;-70
2022/08/12 10:47:27;;;;;;;6.70;3.13;;;29.50;45.70;;;;;;5068340;28;20231;-71
2022/08/12 10:49:53;;;;;;;3.22;3.03;;;29.60;45.80;;;;;;5069251;28;20310;-70
2022/08/12 10:52:23;;;;;;;2.80;2.60;;;29.50;45.50;;;;;;5054899;28;20233;-70
2022/08/12 10:54:49;;;;;;;2.55;2.45;;;29.50;45.70;;;;;;5060507;28;20298;-69
2022/08/12 10:57:15;;;;;;;2.60;2.40;;;29.50;45.50;;;;;;5061854;28;20239;-69
2022/08/12 10:59:41;;;;;;;3.38;3.17;;;29.70;45.50;;;;;;5063727;28;20694;-70
2022/08/12 11:02:18;;;;;;;2.83;2.63;;;29.80;45.30;;;;;;5062097;28;20233;-69
2022/08/12 11:04:44;;;;;;;3.80;3.50;;;29.90;45.00;;;;;;5068068;28;20274;-70
2022/08/12 11:07:10;;;;;;;2.53;2.33;;;29.80;44.90;;;;;;5067041;28;20221;-70
2022/08/12 11:09:37;;;;;;;3.55;3.22;;;29.70;44.70;;;;;;5064913;28;20217;-70
2022/08/12 11:12:05;;;;;;;2.85;2.65;;;29.80;44.80;;;;;;5069878;28;20303;-70
2022/08/12 11:14:37;;;;;;;3.28;2.53;;;29.90;44.90;;;;;;5066946;28;20279;-71
2022/08/12 11:17:10;;;;;;;3.10;2.90;;;30.00;44.90;;;;;;5052179;28;20232;-70
2022/08/12 11:19:38;;;;;;;2.55;2.42;;;30.00;44.90;;;;;;5057558;28;20224;-69
2022/08/12 11:22:06;;;;;;;2.80;2.60;;;29.80;45.00;;;;;;5065670;28;20227;-70
2022/08/12 11:24:32;;;;;;;2.90;2.70;;;29.70;44.90;;;;;;5070376;28;20296;-70
2022/08/12 11:26:59;;;;;;;4.45;3.13;;;29.60;45.10;;;;;;5063244;28;20362;-70
2022/08/12 11:29:26;;;;;;;3.28;2.80;;;29.60;44.80;;;;;;5067526;27;20220;-71
2022/08/12 11:31:53;;;;;;;3.97;2.78;;;29.70;44.70;;;;;;5067028;28;20224;-69
2022/08/12 11:34:19;;;;;;;2.80;2.60;;;29.80;44.80;;;;;;5079714;28;20251;-70
2022/08/12 11:37:04;;;;;;;2.70;2.47;;;29.80;44.70;;;;;;5060799;28;20227;-70
2022/08/12 11:39:31;;;;;;;3.22;3.03;;;30.20;44.50;;;;;;5064639;28;20853;-69
2022/08/12 11:41:58;;;;;;;4.30;2.58;;;30.40;44.60;;;;;;5036435;28;20606;-70
2022/08/12 11:44:24;;;;;;;3.10;2.90;;;30.60;43.90;;;;;;5066940;28;20214;-69
2022/08/12 11:46:51;;;;;;;2.95;2.47;;;30.90;43.60;;;;;;5056088;28;20326;-70
2022/08/12 11:49:16;;;;;;;4.30;2.70;;;31.00;43.70;;;;;;5059825;28;20277;-70
2022/08/12 11:51:42;;;;;;;3.67;2.33;;;31.00;43.70;;;;;;5060956;28;20245;-69
2022/08/12 11:54:08;;;;;;;3.00;2.80;;;30.90;43.40;;;;;;5056788;28;20215;-70
2022/08/12 11:56:33;;;;;;;3.28;2.47;;;30.80;43.70;;;;;;5059174;28;20216;-69
2022/08/12 11:59:00;;;;;;;2.90;2.70;;;30.50;43.40;;;;;;5051338;28;20228;-71
2022/08/12 12:01:25;;;;;;;3.30;2.90;;;30.30;43.70;;;;;;5048174;28;20290;-70
2022/08/12 12:03:51;;;;;;;4.25;2.55;;;30.20;43.80;;;;;;5079393;28;20231;-70
2022/08/12 12:06:19;;;;;;;3.30;3.10;;;30.10;43.80;;;;;;5065591;28;20232;-70
2022/08/12 12:08:46;;;;;;;2.65;2.55;;;30.20;43.60;;;;;;5071007;28;20594;-70
2022/08/12 12:11:12;;;;;;;2.80;2.60;;;30.30;43.70;;;;;;5064420;28;20230;-71
2022/08/12 12:13:38;;;;;;;3.30;3.00;;;30.50;43.70;;;;;;5056074;28;20229;-70
2022/08/12 12:16:04;;;;;;;2.30;2.20;;;30.50;43.30;;;;;;5059808;28;20230;-70
2022/08/12 12:18:31;;;;;;;2.50;2.30;;;30.50;43.20;;;;;;5062004;28;20224;-70
2022/08/12 12:20:59;;;;;;;3.72;2.30;;;30.40;43.00;;;;;;5059365;28;20229;-70
2022/08/12 12:23:24;;;;;;;4.50;2.50;;;30.50;42.90;;;;;;5060847;28;20608;-70
2022/08/12 12:25:50;;;;;;;2.53;2.33;;;30.70;43.00;;;;;;5046852;28;20238;-70
2022/08/12 12:28:16;;;;;;;2.83;2.63;;;30.70;42.80;;;;;;5055315;28;20273;-71
2022/08/12 12:30:42;;;;;;;6.38;2.40;;;30.80;43.20;;;;;;5064405;28;20222;-70
2022/08/12 12:33:09;;;;;;;2.85;2.38;;;30.70;43.10;;;;;;5064483;28;20575;-71
2022/08/12 12:35:36;;;;;;;2.38;2.17;;;30.60;43.20;;;;;;5062629;28;20222;-70
2022/08/12 12:38:06;;;;;;;4.57;2.40;;;30.60;43.00;;;;;;5080380;28;20225;-70
2022/08/12 12:40:34;;;;;;;2.90;2.50;;;30.70;43.10;;;;;;5067346;28;20219;-70
2022/08/12 12:43:00;;;;;;;2.47;2.28;;;30.80;42.60;;;;;;5069733;28;20273;-70
2022/08/12 12:45:26;;;;;;;3.13;2.85;;;31.00;42.90;;;;;;5083832;28;20269;-70
2022/08/12 12:48:00;;;;;;;2.97;2.67;;;31.10;42.60;;;;;;5063750;28;20218;-70
2022/08/12 12:50:29;;;;;;;2.50;2.40;;;31.30;42.90;;;;;;5065193;28;20225;-71
2022/08/12 12:52:54;;;;;;;1.90;1.80;;;31.40;42.70;;;;;;5063524;28;20664;-70
2022/08/12 12:55:22;;;;;;;2.80;2.60;;;31.50;42.50;;;;;;5067636;28;20356;-70
2022/08/12 12:57:48;;;;;;;3.05;2.45;;;31.60;42.20;;;;;;5061774;28;20211;-70
2022/08/12 13:00:15;;;;;;;2.50;2.40;;;31.60;41.90;;;;;;5066286;28;20635;-70
2022/08/12 13:02:54;;;;;;;2.35;2.25;;;31.60;42.30;;;;;;5054994;28;20214;-70
2022/08/12 13:05:25;;;;;;;5.40;2.55;;;31.60;42.00;;;;;;5062099;28;20237;-70
2022/08/12 13:08:02;;;;;;;3.20;2.90;;;31.50;41.80;;;;;;5069670;28;20219;-70
2022/08/12 13:10:31;;;;;;;2.38;2.17;;;31.50;42.10;;;;;;5070572;28;20230;-71
2022/08/12 13:12:57;;;;;;;3.15;2.42;;;31.60;42.20;;;;;;5067721;28;20214;-68
2022/08/12 13:15:23;;;;;;;2.40;2.20;;;31.40;41.80;;;;;;5070024;28;20697;-67
2022/08/12 13:17:50;;;;;;;7.63;2.60;;;31.10;41.90;;;;;;5051311;28;20219;-67
2022/08/12 13:20:19;;;;;;;2.40;2.20;;;30.90;41.90;;;;;;5067348;28;20219;-68
2022/08/12 13:22:46;;;;;;;2.33;2.22;;;30.90;41.90;;;;;;5063462;28;20231;-68
2022/08/12 13:25:14;;;;;;;3.35;2.47;;;31.10;41.90;;;;;;5053090;28;20268;-67
2022/08/12 13:27:46;;;;;;;2.33;2.20;;;31.00;41.50;;;;;;5065609;28;20254;-68
2022/08/12 13:30:22;;;;;;;2.75;2.33;;;30.90;41.60;;;;;;5060668;28;20232;-67
2022/08/12 13:32:53;;;;;;;2.50;2.30;;;30.90;41.70;;;;;;5063740;28;20298;-68
2022/08/12 13:35:19;;;;;;;2.63;2.42;;;31.00;41.50;;;;;;5070010;28;20647;-67
2022/08/12 13:37:55;;;;;;;4.50;2.20;;;30.90;41.60;;;;;;5060155;28;20312;-67
2022/08/12 13:40:23;;;;;;;2.45;2.30;;;31.00;42.30;;;;;;5070912;28;20334;-68
2022/08/12 13:42:51;;;;;;;2.53;2.33;;;31.00;41.90;;;;;;5069560;28;20294;-67
2022/08/12 13:45:17;;;;;;;2.75;2.55;;;31.00;42.00;;;;;;5063728;28;20251;-68
2022/08/12 13:47:54;;;;;;;2.50;2.30;;;31.10;41.90;;;;;;5081801;28;20218;-68
2022/08/12 13:50:23;;;;;;;2.83;1.98;;;31.20;41.90;;;;;;5082977;28;20231;-67
2022/08/12 13:52:49;;;;;;;2.33;2.22;;;31.30;42.10;;;;;;5066210;28;20251;-68
2022/08/12 13:55:15;;;;;;;2.33;2.22;;;31.50;42.30;;;;;;5071050;28;20215;-67
2022/08/12 13:57:42;;;;;;;2.28;2.13;;;31.60;41.70;;;;;;5069194;28;20226;-68
2022/08/12 14:00:12;;;;;;;2.60;2.40;;;31.80;41.60;;;;;;5069328;28;20219;-68
2022/08/12 14:02:40;;;;;;;2.60;2.35;;;31.70;41.70;;;;;;5069333;28;20821;-68
2022/08/12 14:05:08;;;;;;;2.65;2.45;;;31.70;41.90;;;;;;5068842;28;20302;-68
2022/08/12 14:08:07;;;;;;;2.30;2.20;;;32.00;41.30;;;;;;5066531;28;20222;-68
2022/08/12 14:10:35;;;;;;;2.70;2.50;;;32.10;41.10;;;;;;5066003;27;20224;-68
2022/08/12 14:13:15;;;;;;;2.58;2.22;;;32.00;41.10;;;;;;5046605;28;20649;-68
2022/08/12 14:15:51;;;;;;;2.90;2.60;;;31.60;41.30;;;;;;5085524;27;20293;-68
2022/08/12 14:18:22;;;;;;;4.50;2.58;;;31.40;41.60;;;;;;5070752;28;20214;-67
2022/08/12 14:20:51;;;;;;;2.15;2.05;;;31.20;41.80;;;;;;5057156;28;20225;-68
2022/08/12 14:23:18;;;;;;;4.25;2.72;;;31.00;41.60;;;;;;5069020;28;20250;-67
2022/08/12 14:25:46;;;;;;;2.90;2.70;;;30.90;41.30;;;;;;5063477;28;20238;-67
2022/08/12 14:28:17;;;;;;;2.45;2.35;;;31.10;41.70;;;;;;5059982;28;20219;-67
2022/08/12 14:30:50;;;;;;;2.67;2.47;;;31.10;41.20;;;;;;5068426;28;20226;-67
2022/08/12 14:33:16;;;;;;;2.28;2.17;;;31.10;41.50;;;;;;5057028;28;20223;-67
2022/08/12 14:35:42;;;;;;;2.67;2.47;;;31.00;41.70;;;;;;5062603;28;20297;-67
2022/08/12 14:38:19;;;;;;;8.90;2.55;;;30.90;41.50;;;;;;5067772;28;20222;-67
2022/08/12 14:40:46;;;;;;;2.08;1.98;;;31.00;41.60;;;;;;5059258;28;20218;-68
2022/08/12 14:43:15;;;;;;;2.33;2.22;;;30.90;41.80;;;;;;5060358;28;20242;-67
2022/08/12 14:45:42;;;;;;;4.05;2.85;;;31.10;41.80;;;;;;5067672;28;20222;-67
2022/08/12 14:48:08;;;;;;;5.53;2.70;;;31.20;41.50;;;;;;5080126;28;20211;-67